Time;durP1;ratioP1;P1;durP2;ratioP2;P2;SDS_P1;SDS_P2;PMS_P1;PMS_P2;Temp;Humidity;BMP_temperature;BMP_pressure;BME280_temperature;BME280_humidity;BME280_pressure;Samples;Min_cycle;Max_cycle;Signal;HPM_P1;HPM_P2
2023/01/31 00:00:46;;;;;;;;;;;8.60;56.00;;;6.89;61.42;100940.41;12257095;19;20358;-84
2023/01/31 00:04:49;;;;;;;;;;;8.50;55.50;;;6.99;61.64;100944.34;12260989;19;19931;-83
2023/01/31 00:08:52;;;;;;;;;;;8.50;56.30;;;6.89;61.38;100948.19;12248473;19;19982;-82
2023/01/31 00:12:53;;;;;;;;;;;8.50;56.40;;;6.83;61.30;100943.22;12248338;19;19915;-82
2023/01/31 00:16:55;;;;;;;;;;;8.50;56.20;;;6.96;61.36;100979.97;12244737;19;19922;-82
2023/01/31 00:20:57;;;;;;;;;;;8.40;56.30;;;6.81;61.36;100956.25;12248270;19;19915;-82
2023/01/31 00:24:58;;;;;;;;;;;8.40;56.40;;;6.83;61.42;100971.75;12246796;19;19982;-82
2023/01/31 00:29:02;;;;;;;;;;;8.40;56.50;;;6.77;61.36;100972.00;12249900;19;19934;-84
2023/01/31 00:33:03;;;;;;;;;;;8.40;56.40;;;6.89;61.35;100991.50;12253925;19;19926;-83
2023/01/31 00:37:08;;;;;;;;;;;8.40;56.60;;;6.61;61.41;100956.09;12252730;19;20230;-83
2023/01/31 00:41:10;;;;;;;;;;;8.40;56.40;;;6.82;61.52;101004.66;12256846;19;19959;-83
2023/01/31 00:45:12;;;;;;;;;;;8.50;56.40;;;6.81;61.27;101008.16;12257569;19;19942;-84
2023/01/31 00:49:13;;;;;;;;;;;8.30;56.40;;;6.80;61.32;101021.19;12258713;19;19985;-83
2023/01/31 00:53:17;;;;;;;;;;;8.50;56.40;;;6.73;61.48;101017.13;12255402;19;19930;-83
2023/01/31 00:57:18;;;;;;;;;;;8.30;56.50;;;6.76;61.42;101028.25;12253668;19;19926;-83
2023/01/31 01:01:25;;;;;;;;;;;8.30;56.50;;;6.71;61.54;101021.53;12254610;19;20278;-83
2023/01/31 01:05:27;;;;;;;;;;;8.30;56.60;;;6.63;61.49;101012.25;12255362;19;20230;-83
2023/01/31 01:09:28;;;;;;;;;;;8.30;55.90;;;6.71;61.43;101037.09;12258526;19;19910;-83
2023/01/31 01:13:30;;;;;;;;;;;8.30;56.50;;;6.73;61.54;101036.13;12269890;19;19956;-83
2023/01/31 01:17:32;;;;;;;;;;;8.30;56.50;;;6.65;61.48;101025.19;12263156;19;20318;-83
2023/01/31 01:21:40;;;;;;;;;;;8.30;56.50;;;6.78;61.37;101043.78;12269614;19;19919;-83
2023/01/31 01:25:43;;;;;;;;;;;8.50;56.40;;;6.75;61.55;101052.50;12266019;19;19914;-83
2023/01/31 01:29:45;;;;;;;;;;;8.30;56.30;;;6.72;61.35;101041.38;12262204;19;19939;-83
2023/01/31 01:33:47;;;;;;;;;;;8.30;56.40;;;6.76;61.38;101049.00;12264102;19;19922;-83
2023/01/31 01:37:49;;;;;;;;;;;8.30;56.30;;;6.46;61.37;101009.38;12259006;19;19946;-83
2023/01/31 01:41:51;;;;;;;;;;;8.30;56.10;;;6.78;61.34;101048.97;12264170;19;19926;-83
2023/01/31 01:45:53;;;;;;;;;;;8.40;56.30;;;6.52;61.52;101009.16;12262832;19;20250;-83
2023/01/31 01:50:03;;;;;;;;;;;8.40;56.50;;;6.81;61.53;101067.03;12264815;19;19943;-83
2023/01/31 01:54:08;;;;;;;;;;;8.40;56.30;;;6.64;61.50;101041.63;12267095;19;19939;-83
2023/01/31 01:58:37;;;;;;;;;;;8.40;56.20;;;6.89;61.53;101087.53;12264216;19;19932;-83
2023/01/31 02:02:39;;;;;;;;;;;8.40;56.40;;;6.77;61.50;101079.25;12263684;19;19939;-83
2023/01/31 02:06:42;;;;;;;;;;;8.40;55.50;;;6.84;61.42;101095.47;12262840;19;19922;-83
2023/01/31 02:11:02;;;;;;;;;;;8.40;56.00;;;6.77;61.28;101092.22;12261720;19;20341;-83
2023/01/31 02:15:05;;;;;;;;;;;8.40;55.70;;;6.76;61.32;101089.69;12265366;19;19949;-83
2023/01/31 02:19:20;;;;;;;;;;;8.40;56.10;;;6.79;61.34;101105.16;12265939;19;20306;-84
2023/01/31 02:23:37;;;;;;;;;;;8.40;56.10;;;6.82;61.43;101100.69;12258565;19;19942;-84
2023/01/31 02:27:53;;;;;;;;;;;8.40;55.80;;;6.78;61.31;101111.25;12262557;19;19938;-84
2023/01/31 02:32:14;;;;;;;;;;;8.40;55.80;;;6.81;61.50;101121.53;12262832;19;20372;-83
2023/01/31 02:36:25;;;;;;;;;;;8.30;56.20;;;6.80;61.39;101148.38;12259209;19;19915;-83
2023/01/31 02:41:00;;;;;;;;;;;8.30;56.00;;;6.78;61.31;101145.84;12264695;19;19910;-82
2023/01/31 02:45:28;;;;;;;;;;;8.30;56.00;;;6.79;61.41;101146.69;12258510;19;19915;-83
2023/01/31 02:49:41;;;;;;;;;;;8.30;55.70;;;6.75;61.50;101155.44;12261662;19;19923;-83
2023/01/31 02:53:58;;;;;;;;;;;8.30;56.00;;;6.79;61.32;101162.25;12261351;19;19934;-83
2023/01/31 02:58:03;;;;;;;;;;;8.30;56.00;;;6.60;61.33;101117.88;12257645;19;19914;-83
2023/01/31 03:02:05;;;;;;;;;;;8.50;55.90;;;6.71;61.26;101146.09;12262742;19;19928;-83
2023/01/31 03:06:22;;;;;;;;;;;8.30;55.90;;;6.81;61.21;101163.06;12258852;19;19915;-83
2023/01/31 03:10:24;;;;;;;;;;;8.30;55.80;;;6.82;61.18;101154.38;12260930;19;19949;-83
2023/01/31 03:14:31;;;;;;;;;;;8.30;56.10;;;6.78;61.18;101164.00;12262892;19;19915;-83
2023/01/31 03:18:46;;;;;;;;;;;8.30;55.70;;;6.70;61.27;101153.03;12255826;19;19922;-83
2023/01/31 03:22:55;;;;;;;;;;;8.30;55.70;;;6.81;61.30;101176.03;12257889;19;19915;-83
2023/01/31 03:27:00;;;;;;;;;;;8.30;55.50;;;6.66;61.17;101143.63;12257780;19;19942;-83
2023/01/31 03:31:13;;;;;;;;;;;8.30;55.90;;;6.71;61.15;101169.44;12254772;19;20589;-83
2023/01/31 03:35:15;;;;;;;;;;;8.30;55.50;;;6.50;61.36;101143.25;12256733;19;19910;-83
2023/01/31 03:39:36;;;;;;;;;;;8.30;56.00;;;6.76;61.31;101201.28;12259503;19;19906;-83
2023/01/31 03:43:41;;;;;;;;;;;8.30;56.30;;;6.75;61.26;101216.03;12260770;19;19919;-82
2023/01/31 03:47:48;;;;;;;;;;;8.20;56.30;;;6.69;61.28;101192.84;12254746;19;19922;-83
2023/01/31 03:51:53;;;;;;;;;;;8.30;56.20;;;6.66;61.19;101208.50;12250279;19;19932;-83
2023/01/31 03:55:59;;;;;;;;;;;8.50;56.40;;;6.71;61.26;101219.59;12250624;19;20067;-83
2023/01/31 04:00:04;;;;;;;;;;;8.20;56.30;;;6.66;61.06;101221.47;12255487;19;19926;-82
2023/01/31 04:04:24;;;;;;;;;;;8.20;56.30;;;6.41;61.07;101169.50;12254185;19;19936;-83
2023/01/31 04:08:25;;;;;;;;;;;8.20;56.30;;;6.57;61.08;101207.06;12249113;19;20317;-83
2023/01/31 04:12:36;;;;;;;;;;;8.20;56.30;;;6.57;60.96;101216.59;12250593;19;19922;-82
2023/01/31 04:16:37;;;;;;;;;;;8.10;56.30;;;6.54;60.99;101227.91;12246743;19;20275;-82
2023/01/31 04:20:39;;;;;;;;;;;8.30;56.30;;;6.50;61.13;101217.66;12250110;19;19911;-82
2023/01/31 04:24:41;;;;;;;;;;;8.00;56.30;;;6.44;61.09;101210.91;12241952;19;19927;-82
2023/01/31 04:28:43;;;;;;;;;;;8.30;56.20;;;6.33;61.19;101197.44;12248551;19;19923;-82
2023/01/31 04:32:44;;;;;;;;;;;8.00;56.30;;;6.28;61.22;101199.31;12249238;19;20331;-82
2023/01/31 04:36:46;;;;;;;;;;;7.90;56.10;;;6.34;61.22;101212.91;12245857;19;19934;-82
2023/01/31 04:40:47;;;;;;;;;;;8.00;56.30;;;6.40;61.15;101230.06;12246689;19;19926;-82
2023/01/31 04:44:49;;;;;;;;;;;7.90;56.40;;;6.24;60.89;101213.25;12251208;19;20140;-83
2023/01/31 04:48:50;;;;;;;;;;;7.90;56.40;;;6.27;61.14;101229.59;12253724;19;19914;-83
2023/01/31 04:52:51;;;;;;;;;;;7.90;56.40;;;6.33;61.15;101259.66;12260128;19;19923;-83
2023/01/31 04:56:53;;;;;;;;;;;7.90;56.40;;;6.31;61.15;101267.47;12254782;19;19935;-82
2023/01/31 05:00:54;;;;;;;;;;;7.80;56.50;;;6.26;61.03;101263.31;12262425;19;19910;-83
2023/01/31 05:04:56;;;;;;;;;;;7.80;56.50;;;6.24;61.18;101271.16;12262952;19;19947;-83
2023/01/31 05:09:00;;;;;;;;;;;7.80;56.50;;;6.26;61.25;101289.25;12264512;19;19910;-82
2023/01/31 05:13:01;;;;;;;;;;;7.80;56.60;;;6.24;60.90;101285.84;12261154;19;19910;-82
2023/01/31 05:17:03;;;;;;;;;;;7.80;56.60;;;6.03;61.01;101246.69;12260897;19;19911;-82
2023/01/31 05:21:06;;;;;;;;;;;7.70;56.70;;;5.91;61.13;101223.66;12260691;19;19938;-82
2023/01/31 05:25:07;;;;;;;;;;;7.70;56.60;;;6.16;61.02;101263.59;12260872;19;19922;-82
2023/01/31 05:29:09;;;;;;;;;;;7.70;56.70;;;6.03;61.16;101235.47;12257390;19;19911;-82
2023/01/31 05:33:11;;;;;;;;;;;8.00;56.80;;;6.18;61.14;101272.19;12257859;19;19974;-82
2023/01/31 05:37:12;;;;;;;;;;;7.70;56.80;;;6.14;61.19;101265.38;12258425;19;19942;-82
2023/01/31 05:41:14;;;;;;;;;;;7.70;56.70;;;5.88;61.16;101221.16;12258816;19;19915;-83
2023/01/31 05:45:15;;;;;;;;;;;7.70;56.80;;;6.05;61.10;101260.47;12260446;19;19923;-83
2023/01/31 05:49:17;;;;;;;;;;;7.70;56.80;;;5.96;61.14;101245.13;12260099;19;19918;-82
2023/01/31 05:53:19;;;;;;;;;;;7.60;56.80;;;5.98;61.13;101256.31;12260352;19;20310;-82
2023/01/31 05:57:20;;;;;;;;;;;7.70;56.80;;;6.00;61.20;101259.75;12255362;19;19914;-83
2023/01/31 06:01:24;;;;;;;;;;;7.70;56.90;;;6.04;61.30;101265.69;12261820;19;19978;-83
2023/01/31 06:05:26;;;;;;;;;;;7.70;56.90;;;6.17;61.20;101290.38;12258195;19;20348;-82
2023/01/31 06:09:27;;;;;;;;;;;7.70;57.00;;;6.10;61.02;101284.53;12255671;19;19915;-82
2023/01/31 06:13:30;;;;;;;;;;;7.70;57.00;;;6.02;61.25;101257.09;12257735;19;20269;-82
2023/01/31 06:17:32;;;;;;;;;;;7.70;57.00;;;6.07;61.00;101263.84;12253929;19;19982;-83
2023/01/31 06:21:33;;;;;;;;;;;7.70;57.00;;;6.24;61.20;101291.03;12257594;19;19922;-82
2023/01/31 06:25:35;;;;;;;;;;;7.80;57.00;;;5.99;61.22;101250.25;12255967;19;20577;-82
2023/01/31 06:29:36;;;;;;;;;;;8.00;57.10;;;6.14;61.02;101280.94;12254600;19;19915;-83
2023/01/31 06:33:41;;;;;;;;;;;7.80;57.10;;;5.82;61.04;101218.72;12254349;19;19918;-83
2023/01/31 06:37:42;;;;;;;;;;;7.80;57.10;;;6.24;61.22;101288.44;12250960;19;20269;-83
2023/01/31 06:41:43;;;;;;;;;;;7.90;57.10;;;6.22;61.10;101290.25;12257619;19;19934;-83
2023/01/31 06:45:45;;;;;;;;;;;7.90;57.10;;;6.35;61.29;101309.78;12254073;19;20610;-83
2023/01/31 06:49:46;;;;;;;;;;;7.90;57.50;;;6.38;61.30;101320.91;12252334;19;19922;-83
2023/01/31 06:53:47;;;;;;;;;;;7.90;57.10;;;6.31;61.10;101306.38;12253319;19;20361;-83
2023/01/31 06:57:49;;;;;;;;;;;8.20;57.20;;;6.36;61.14;101303.66;12250820;19;19907;-83
2023/01/31 07:01:51;;;;;;;;;;;8.00;57.20;;;6.45;61.33;101316.38;12250405;19;19914;-83
2023/01/31 07:05:52;;;;;;;;;;;8.00;57.20;;;6.30;61.34;101290.88;12248993;19;19923;-83
2023/01/31 07:09:53;;;;;;;;;;;8.00;57.20;;;6.50;61.31;101327.47;12250660;19;19914;-82
2023/01/31 07:13:55;;;;;;;;;;;8.00;57.20;;;6.42;61.17;101304.34;12252708;19;19929;-82
2023/01/31 07:18:05;;;;;;;;;;;8.00;57.20;;;6.55;61.11;101332.53;12245744;19;20348;-83
2023/01/31 07:22:06;;;;;;;;;;;8.10;57.20;;;6.48;61.16;101305.94;12251813;19;19911;-83
2023/01/31 07:26:08;;;;;;;;;;;8.10;57.30;;;6.57;61.38;101321.22;12249739;19;19922;-83
2023/01/31 07:30:10;;;;;;;;;;;8.20;57.30;;;6.59;61.33;101308.22;12247662;19;19915;-83
2023/01/31 07:34:11;;;;;;;;;;;8.10;57.30;;;6.60;61.21;101309.91;12250920;19;20325;-83
2023/01/31 07:38:12;;;;;;;;;;;8.20;57.30;;;6.61;61.47;101290.84;12248182;19;19909;-83
2023/01/31 07:42:14;;;;;;;;;;;8.20;57.40;;;6.69;61.12;101304.44;12249522;19;20262;-82
2023/01/31 07:46:16;;;;;;;;;;;8.20;57.40;;;6.59;61.30;101300.44;12248405;19;20642;-83
2023/01/31 07:50:18;;;;;;;;;;;8.30;57.40;;;6.52;61.21;101289.38;12247162;19;19911;-83
2023/01/31 07:54:19;;;;;;;;;;;8.30;57.40;;;6.71;61.30;101322.56;12251651;19;19948;-82
2023/01/31 07:58:20;;;;;;;;;;;8.30;57.40;;;6.62;61.33;101306.38;12247802;19;19910;-83
2023/01/31 08:06:43;;;;;;;;;;;8.40;57.50;;;6.75;61.22;101329.34;12243222;19;19929;-82
2023/01/31 08:10:45;;;;;;;;;;;8.40;57.50;;;6.82;61.15;101317.91;12243731;19;19923;-82
2023/01/31 08:14:47;;;;;;;;;;;8.40;57.50;;;6.57;61.40;101290.09;12251921;19;19929;-84
2023/01/31 08:18:49;;;;;;;;;;;8.40;57.50;;;6.83;61.38;101323.06;12267014;19;19914;-83
2023/01/31 08:22:50;;;;;;;;;;;8.40;57.50;;;6.82;61.20;101310.09;12264202;19;19946;-83
2023/01/31 08:26:51;;;;;;;;;;;8.40;57.50;;;6.87;61.37;101321.22;12256642;19;19927;-83
2023/01/31 08:30:52;;;;;;;;;;;8.50;57.60;;;6.93;61.37;101321.00;12250977;19;19921;-82
2023/01/31 08:34:54;;;;;;;;;;;8.50;57.60;;;6.94;61.43;101314.06;12255010;19;19925;-83
2023/01/31 08:38:56;;;;;;;;;;;8.50;57.60;;;6.88;61.15;101294.34;12252251;19;19923;-85
2023/01/31 08:42:59;;;;;;;;;;;8.50;57.60;;;6.89;61.43;101295.22;12267357;19;19929;-84
2023/01/31 08:47:01;;;;;;;;;;;8.50;57.60;;;6.96;61.24;101304.50;12261714;19;19923;-83
2023/01/31 08:51:04;;;;;;;;;;;8.50;57.60;;;6.97;61.36;101296.66;12258752;19;19926;-83
2023/01/31 08:55:08;;;;;;;;;;;8.60;57.70;;;7.02;61.33;101310.38;12256668;19;19910;-83
2023/01/31 08:59:10;;;;;;;;;;;8.60;57.70;;;6.99;61.25;101297.44;12261182;19;19919;-83
2023/01/31 09:03:15;;;;;;;;;;;8.60;57.70;;;6.96;61.24;101281.97;12258810;19;19919;-83
2023/01/31 09:07:20;;;;;;;;;;;8.60;57.70;;;6.95;61.34;101280.28;12258495;19;19914;-84
2023/01/31 09:11:21;;;;;;;;;;;8.90;57.80;;;7.07;61.30;101284.22;12262024;19;19918;-84
2023/01/31 09:15:23;;;;;;;;;;;8.60;57.70;;;7.03;61.28;101262.72;12268009;19;19911;-83
2023/01/31 09:19:24;;;;;;;;;;;8.60;57.70;;;7.06;61.46;101266.97;12265419;19;20314;-83
2023/01/31 09:23:26;;;;;;;;;;;8.70;57.80;;;7.09;61.29;101270.31;12267965;19;19914;-84
2023/01/31 09:27:28;;;;;;;;;;;8.70;57.80;;;7.06;61.51;101261.78;12257584;19;19907;-83
2023/01/31 09:31:30;;;;;;;;;;;8.70;57.80;;;7.07;61.43;101250.47;12265542;19;20353;-83
2023/01/31 09:35:31;;;;;;;;;;;8.70;57.80;;;7.11;61.43;101246.06;12278881;19;19918;-83
2023/01/31 09:39:32;;;;;;;;;;;8.70;57.80;;;7.17;61.37;101259.66;12279780;19;19922;-83
2023/01/31 09:43:40;;;;;;;;;;;8.80;57.80;;;7.23;61.35;101258.63;12270823;19;19922;-83
2023/01/31 09:47:47;;;;;;;;;;;8.80;57.80;;;7.21;61.09;101250.03;12257998;19;19915;-83
2023/01/31 09:51:54;;;;;;;;;;;8.80;57.80;;;7.28;61.40;101249.78;12250084;19;19922;-84
2023/01/31 09:56:08;;;;;;;;;;;8.80;57.80;;;7.32;61.51;101242.75;12257311;19;20249;-83
2023/01/31 10:00:31;;;;;;;;;;;8.80;57.80;;;7.26;61.36;101220.44;12257658;19;19918;-83
2023/01/31 10:04:32;;;;;;;;;;;8.90;57.80;;;7.39;61.25;101231.22;12255444;19;19923;-83
2023/01/31 10:09:26;;;;;;;;;;;9.10;57.90;;;7.42;61.32;101218.13;12252372;19;19922;-83
2023/01/31 10:13:34;;;;;;;;;;;8.90;57.80;;;7.36;61.47;101207.97;12251899;19;19936;-84
2023/01/31 10:17:58;;;;;;;;;;;9.00;57.80;;;7.44;61.29;101199.91;12249706;19;19919;-84
2023/01/31 10:22:11;;;;;;;;;;;9.00;57.80;;;7.43;61.22;101193.88;12254592;19;19933;-83
2023/01/31 10:26:25;;;;;;;;;;;9.00;57.80;;;7.51;61.33;101191.00;12250824;19;19926;-83
2023/01/31 10:30:55;;;;;;;;;;;9.10;57.90;;;7.47;61.30;101166.84;12251687;19;20274;-83
2023/01/31 10:35:12;;;;;;;;;;;9.10;57.90;;;7.54;61.30;101170.94;12253149;19;19926;-83
2023/01/31 10:39:22;;;;;;;;;;;9.20;57.90;;;7.51;61.41;101159.81;12253675;19;20337;-83
2023/01/31 10:43:38;;;;;;;;;;;9.20;57.90;;;7.69;61.34;101177.34;12251179;19;20225;-82
2023/01/31 10:47:58;;;;;;;;;;;9.20;57.80;;;7.72;61.40;101158.19;12251917;19;19922;-83
2023/01/31 10:52:10;;;;;;;;;;;9.20;57.80;;;7.75;61.60;101145.09;12251856;19;19952;-82
2023/01/31 10:56:19;;;;;;;;;;;9.30;57.80;;;7.77;61.40;101145.88;12252255;19;19966;-83
2023/01/31 11:00:28;;;;;;;;;;;9.30;57.80;;;7.69;61.37;101129.69;12251788;19;19926;-82
2023/01/31 11:04:37;;;;;;;;;;;9.30;57.80;;;7.76;61.30;101131.19;12252120;19;20455;-84
2023/01/31 11:08:44;;;;;;;;;;;9.40;57.80;;;7.82;61.40;101130.94;12254357;19;19922;-83
2023/01/31 11:12:55;;;;;;;;;;;9.40;57.80;;;7.70;61.37;101103.66;12251670;19;19918;-82
2023/01/31 11:17:04;;;;;;;;;;;9.40;57.80;;;7.73;61.58;101095.75;12248802;19;20019;-82
2023/01/31 11:21:05;;;;;;;;;;;9.40;57.80;;;7.83;61.64;101091.06;12250761;19;19920;-83
2023/01/31 11:25:19;;;;;;;;;;;9.40;57.90;;;7.58;61.39;101035.69;12250148;19;19995;-82
2023/01/31 11:29:26;;;;;;;;;;;9.40;57.80;;;7.86;61.37;101077.94;12250041;19;19957;-82
2023/01/31 11:33:57;;;;;;;;;;;9.40;57.90;;;7.96;61.28;101078.41;12250504;19;19978;-84
2023/01/31 11:38:09;;;;;;;;;;;9.40;57.80;;;7.88;61.43;101044.06;12249157;19;19932;-82
2023/01/31 11:42:13;;;;;;;;;;;9.60;57.90;;;7.89;61.41;101035.38;12251337;19;19956;-82
2023/01/31 11:46:15;;;;;;;;;;;9.70;57.90;;;7.92;61.49;101038.69;12247953;19;19926;-82
2023/01/31 11:50:25;;;;;;;;;;;9.50;57.80;;;7.99;61.40;101036.69;12247228;19;19942;-82
2023/01/31 11:54:29;;;;;;;;;;;9.50;57.90;;;7.66;61.42;100974.72;12249126;19;20020;-82
2023/01/31 11:58:36;;;;;;;;;;;9.50;57.90;;;7.87;61.49;100999.03;12248346;19;19919;-81
2023/01/31 12:02:40;;;;;;;;;;;9.50;58.00;;;7.94;61.36;101002.25;12250776;19;20258;-82
2023/01/31 12:06:54;;;;;;;;;;;9.50;57.90;;;7.60;61.40;100937.72;12246905;19;19926;-82
2023/01/31 12:10:56;;;;;;;;;;;9.50;57.90;;;7.88;61.42;100979.06;12247033;19;19907;-82
2023/01/31 12:15:04;;;;;;;;;;;9.50;57.90;;;7.89;61.37;100960.81;12246925;19;19930;-82
2023/01/31 12:19:11;;;;;;;;;;;9.40;57.90;;;7.89;61.34;100947.81;12246517;19;19910;-81
2023/01/31 12:23:34;;;;;;;;;;;9.40;57.90;;;7.70;61.33;100900.09;12248162;19;19927;-82
2023/01/31 12:27:54;;;;;;;;;;;9.40;57.90;;;7.86;61.35;100921.94;12244963;19;20247;-81
2023/01/31 12:32:20;;;;;;;;;;;9.40;57.90;;;7.82;61.33;100906.53;12245259;19;19919;-81
2023/01/31 12:36:46;;;;;;;;;;;9.30;57.90;;;7.85;61.44;100914.19;12247240;19;19986;-82
2023/01/31 12:40:59;;;;;;;;;;;9.40;58.00;;;7.73;61.32;100884.34;12248777;19;19929;-82
2023/01/31 12:45:31;;;;;;;;;;;9.30;58.10;;;7.85;61.42;100899.44;12245366;19;19911;-81
2023/01/31 12:50:04;;;;;;;;;;;9.30;58.10;;;7.86;61.20;100887.31;12247521;19;20018;-82
2023/01/31 12:54:24;;;;;;;;;;;9.30;58.10;;;7.83;61.44;100883.06;12247955;19;19930;-82
2023/01/31 12:58:31;;;;;;;;;;;9.30;58.20;;;7.82;61.47;100875.34;12243537;19;19914;-82
2023/01/31 13:03:10;;;;;;;;;;;9.30;58.20;;;7.80;61.41;100866.75;12248780;19;19918;-83
2023/01/31 13:07:28;;;;;;;;;;;9.30;58.20;;;7.69;61.44;100861.97;12251987;19;20264;-81
2023/01/31 13:11:48;;;;;;;;;;;9.30;58.30;;;7.66;61.26;100838.72;12255217;19;19927;-82
2023/01/31 13:16:14;;;;;;;;;;;9.20;58.40;;;7.46;61.55;100816.16;12255817;19;20318;-82
2023/01/31 13:20:39;;;;;;;;;;;9.20;58.70;;;7.61;61.36;100830.25;12257320;19;19925;-82
2023/01/31 13:24:43;;;;;;;;;;;9.20;58.60;;;7.55;61.40;100820.97;12256442;19;19980;-82
2023/01/31 13:29:06;;;;;;;;;;;9.20;58.50;;;7.62;61.27;100845.81;12256263;19;19927;-82
2023/01/31 13:33:19;;;;;;;;;;;9.10;58.50;;;7.56;61.41;100835.69;12257037;19;19911;-82
2023/01/31 13:37:21;;;;;;;;;;;9.10;58.50;;;7.53;61.48;100831.44;12253161;19;19930;-83
2023/01/31 13:41:26;;;;;;;;;;;9.00;58.70;;;7.52;61.53;100813.31;12253339;19;19918;-83
2023/01/31 13:45:33;;;;;;;;;;;9.00;58.70;;;7.53;61.28;100827.97;12256513;19;19919;-82
2023/01/31 13:50:41;;;;;;;;;;;9.00;58.70;;;7.46;61.55;100818.75;12255757;19;19919;-82
2023/01/31 13:54:48;;;;;;;;;;;9.00;58.70;;;7.31;61.51;100799.44;12253170;19;19937;-82
2023/01/31 13:58:50;;;;;;;;;;;8.90;58.90;;;7.31;61.40;100796.84;12257648;19;19990;-82
2023/01/31 14:03:21;;;;;;;;;;;8.90;58.70;;;7.41;61.40;100798.16;12256707;19;19917;-82
2023/01/31 14:07:23;;;;;;;;;;;8.90;58.90;;;7.41;61.45;100811.16;12254508;19;19911;-82
2023/01/31 14:11:28;;;;;;;;;;;8.90;58.80;;;7.43;61.59;100814.53;12253693;19;19960;-82
2023/01/31 14:15:49;;;;;;;;;;;8.90;58.80;;;7.37;61.40;100804.41;12255098;19;19916;-82
2023/01/31 14:19:56;;;;;;;;;;;8.90;58.90;;;7.43;61.39;100813.69;12254345;19;20277;-82
2023/01/31 14:23:59;;;;;;;;;;;8.90;58.80;;;7.30;61.50;100784.75;12258333;19;19918;-82
2023/01/31 14:28:02;;;;;;;;;;;8.90;58.80;;;7.44;61.48;100799.78;12253975;19;20329;-81
2023/01/31 14:32:12;;;;;;;;;;;8.90;58.80;;;7.43;61.59;100788.56;12251924;19;19926;-82
2023/01/31 14:36:41;;;;;;;;;;;8.90;58.90;;;7.48;61.86;100788.34;12254647;19;19919;-82
2023/01/31 14:40:45;;;;;;;;;;;8.90;58.90;;;7.48;61.64;100789.22;12255100;19;19922;-82
2023/01/31 14:45:21;;;;;;;;;;;8.90;58.90;;;7.45;61.65;100780.69;12256755;19;20357;-82
2023/01/31 14:49:54;;;;;;;;;;;8.90;58.80;;;7.49;61.45;100782.25;12253168;19;19910;-82
2023/01/31 14:54:12;;;;;;;;;;;9.00;58.90;;;7.50;61.69;100768.34;12252953;19;19930;-82
2023/01/31 14:58:21;;;;;;;;;;;8.90;58.90;;;7.48;61.53;100755.44;12249900;19;19918;-82
2023/01/31 15:02:32;;;;;;;;;;;8.90;58.90;;;7.51;61.59;100762.25;12247177;19;19957;-82
2023/01/31 15:06:39;;;;;;;;;;;9.00;59.00;;;7.22;61.53;100725.34;12257139;19;20262;-83
2023/01/31 15:11:15;;;;;;;;;;;9.00;59.00;;;7.42;61.61;100739.25;12254416;19;19911;-83
2023/01/31 15:15:37;;;;;;;;;;;8.90;59.10;;;7.46;61.61;100752.06;12257969;19;19923;-83
2023/01/31 15:19:56;;;;;;;;;;;9.00;59.30;;;7.40;61.55;100744.53;12263379;19;19903;-83
2023/01/31 15:23:58;;;;;;;;;;;8.90;59.30;;;7.37;61.67;100743.78;12259741;19;19926;-81
2023/01/31 15:28:01;;;;;;;;;;;8.90;59.10;;;7.47;61.85;100745.09;12258004;19;19907;-82
2023/01/31 15:32:16;;;;;;;;;;;9.00;59.00;;;7.38;61.74;100722.13;12262379;19;19950;-82
2023/01/31 15:36:37;;;;;;;;;;;8.90;59.20;;;7.47;61.63;100737.31;12262356;19;19922;-81
2023/01/31 15:40:39;;;;;;;;;;;9.00;59.50;;;7.46;61.71;100739.06;12262256;19;19928;-83
2023/01/31 15:44:40;;;;;;;;;;;9.00;59.40;;;7.40;61.63;100728.94;12255938;19;19922;-82
2023/01/31 15:48:42;;;;;;;;;;;9.10;59.40;;;7.48;61.87;100742.44;12259977;19;20332;-83
2023/01/31 15:52:45;;;;;;;;;;;9.00;59.30;;;7.20;61.80;100700.34;12261114;19;19925;-83
2023/01/31 15:56:46;;;;;;;;;;;9.00;59.20;;;7.46;61.82;100723.47;12261412;19;19930;-83
2023/01/31 16:00:52;;;;;;;;;;;9.00;59.40;;;7.56;61.63;100726.53;12259767;19;19947;-82
2023/01/31 16:04:54;;;;;;;;;;;9.00;59.40;;;7.47;61.65;100706.97;12261949;19;19914;-83
2023/01/31 16:08:58;;;;;;;;;;;9.10;59.40;;;7.60;61.61;100728.06;12256129;19;19926;-83
2023/01/31 16:13:00;;;;;;;;;;;9.10;59.40;;;7.58;61.64;100716.91;12257104;19;19929;-83
2023/01/31 16:17:02;;;;;;;;;;;9.10;59.40;;;7.64;61.84;100724.44;12257305;19;19915;-84
2023/01/31 16:21:30;;;;;;;;;;;9.10;59.40;;;7.66;61.70;100716.56;12267789;19;19919;-84
2023/01/31 16:25:34;;;;;;;;;;;9.10;59.50;;;7.60;61.82;100690.84;12255987;19;19918;-83
2023/01/31 16:29:45;;;;;;;;;;;9.20;59.80;;;7.46;61.81;100688.84;12252634;19;19911;-84
2023/01/31 16:33:57;;;;;;;;;;;9.20;59.70;;;7.72;61.83;100713.69;12252353;19;19911;-83
2023/01/31 16:38:02;;;;;;;;;;;9.20;59.60;;;7.81;61.93;100731.50;12240354;19;19938;-83
2023/01/31 16:42:07;;;;;;;;;;;9.20;59.80;;;7.73;61.77;100718.84;12262643;19;20645;-83
2023/01/31 16:46:37;;;;;;;;;;;9.30;59.80;;;7.85;61.97;100738.25;12264727;19;19986;-83
2023/01/31 16:50:38;;;;;;;;;;;9.40;59.70;;;7.75;61.73;100729.19;12261288;19;19919;-83
2023/01/31 16:54:51;;;;;;;;;;;9.40;60.20;;;7.91;62.03;100743.19;12266392;19;19927;-83
2023/01/31 16:58:55;;;;;;;;;;;9.40;59.70;;;7.89;61.78;100724.22;12269756;19;20250;-83
2023/01/31 17:02:58;;;;;;;;;;;9.40;60.30;;;7.96;61.77;100714.38;12263961;19;19922;-83
2023/01/31 17:07:05;;;;;;;;;;;9.50;60.00;;;7.94;62.02;100706.66;12261920;19;19926;-84
2023/01/31 17:11:08;;;;;;;;;;;9.50;59.80;;;8.00;61.88;100687.34;12264650;19;19925;-84
2023/01/31 17:15:14;;;;;;;;;;;9.50;59.70;;;7.69;61.82;100636.69;12267747;19;20378;-84
2023/01/31 17:19:16;;;;;;;;;;;9.60;59.60;;;8.07;61.84;100695.69;12270992;19;20025;-84
2023/01/31 17:23:17;;;;;;;;;;;9.60;60.30;;;8.11;61.95;100698.09;12265135;19;19922;-84
2023/01/31 17:27:20;;;;;;;;;;;9.60;59.90;;;8.07;61.98;100695.69;12261225;19;20309;-83
2023/01/31 17:31:22;;;;;;;;;;;9.60;60.00;;;8.02;62.08;100679.44;12259047;19;19923;-83
2023/01/31 17:35:37;;;;;;;;;;;9.60;59.90;;;8.17;61.94;100692.59;12259584;19;19926;-82
2023/01/31 17:39:39;;;;;;;;;;;9.60;59.70;;;8.16;62.10;100688.31;12257557;19;20248;-82
2023/01/31 17:43:40;;;;;;;;;;;9.70;60.10;;;8.08;61.83;100656.63;12258829;19;19922;-83
2023/01/31 17:47:43;;;;;;;;;;;9.70;60.10;;;8.18;62.08;100659.63;12255436;19;20349;-83
2023/01/31 17:51:44;;;;;;;;;;;9.70;59.90;;;8.21;62.02;100662.13;12255675;19;19935;-84
2023/01/31 17:55:45;;;;;;;;;;;9.70;59.80;;;8.24;62.10;100653.31;12258949;19;19926;-83
2023/01/31 17:59:47;;;;;;;;;;;9.70;59.90;;;8.13;61.95;100620.84;12260012;19;19942;-84
2023/01/31 18:03:49;;;;;;;;;;;9.70;60.80;;;8.17;61.83;100611.13;12263868;19;19991;-83
2023/01/31 18:07:50;;;;;;;;;;;9.70;60.50;;;8.15;61.90;100602.56;12256211;19;19986;-84
2023/01/31 18:11:52;;;;;;;;;;;9.70;60.20;;;8.29;61.99;100601.91;12255809;19;20347;-83
2023/01/31 18:16:04;;;;;;;;;;;9.80;59.90;;;8.33;62.10;100603.44;12262981;19;19911;-83
2023/01/31 18:20:06;;;;;;;;;;;9.80;59.80;;;8.33;62.15;100603.44;12262332;19;20509;-84
2023/01/31 18:24:09;;;;;;;;;;;9.80;59.90;;;8.32;62.06;100597.41;12257931;19;20277;-83
2023/01/31 18:28:10;;;;;;;;;;;9.80;59.80;;;8.33;62.03;100599.09;12257989;19;19922;-83
2023/01/31 18:32:12;;;;;;;;;;;9.80;60.10;;;8.38;62.07;100606.69;12265358;19;20491;-84
2023/01/31 18:36:19;;;;;;;;;;;9.80;59.80;;;8.41;62.13;100607.41;12265588;19;20353;-83
2023/01/31 18:40:20;;;;;;;;;;;9.90;59.80;;;8.34;61.88;100595.56;12267070;19;19926;-83
2023/01/31 18:44:21;;;;;;;;;;;9.90;59.70;;;8.43;61.95;100598.69;12265165;19;19922;-84
2023/01/31 18:48:23;;;;;;;;;;;10.00;59.70;;;8.41;61.81;100591.78;12265283;19;20241;-84
2023/01/31 18:52:24;;;;;;;;;;;10.00;59.80;;;8.03;62.04;100532.94;12263492;19;19919;-83
2023/01/31 18:56:26;;;;;;;;;;;9.90;59.70;;;8.36;61.99;100574.69;12265695;19;20225;-83
2023/01/31 19:00:27;;;;;;;;;;;9.90;59.80;;;8.40;61.94;100574.50;12263801;19;20322;-83